createdAt,value
2023-02-11T00:02:19.687Z,-7.76
2023-02-11T00:04:48.925Z,-7.78
2023-02-11T00:07:18.124Z,-7.81
2023-02-11T00:09:47.313Z,-7.69
2023-02-11T00:12:19.690Z,-7.69
2023-02-11T00:14:49.893Z,-7.67
2023-02-11T00:17:19.163Z,-7.79
2023-02-11T00:19:52.482Z,-7.86
2023-02-11T00:22:21.807Z,-7.82
2023-02-11T00:24:51.095Z,-7.78
2023-02-11T00:27:20.434Z,-7.79
2023-02-11T00:29:49.713Z,-7.85
2023-02-11T00:32:18.998Z,-7.90
2023-02-11T00:34:52.276Z,-7.96
2023-02-11T00:37:22.484Z,-8.01
2023-02-11T00:39:51.800Z,-8.06
2023-02-11T00:42:21.122Z,-8.15
2023-02-11T00:44:50.370Z,-8.15
2023-02-11T00:47:19.614Z,-8.18
2023-02-11T00:49:48.902Z,-8.21
2023-02-11T00:52:18.289Z,-8.29
2023-02-11T00:54:47.524Z,-8.33
2023-02-11T00:57:16.720Z,-8.33
2023-02-11T00:59:45.924Z,-8.37
2023-02-11T01:02:15.119Z,-8.38
2023-02-11T01:04:45.498Z,-8.33
2023-02-11T01:07:14.778Z,-8.34
2023-02-11T01:09:44.028Z,-8.45
2023-02-11T01:12:13.354Z,-8.43
2023-02-11T01:14:43.736Z,-8.42
2023-02-11T01:17:13.372Z,-8.39
2023-02-11T01:19:43.051Z,-8.37
2023-02-11T01:22:12.773Z,-8.36
2023-02-11T01:24:41.957Z,-8.31
2023-02-11T01:27:11.188Z,-8.43
2023-02-11T01:29:40.438Z,-8.46
2023-02-11T01:32:09.781Z,-8.43
2023-02-11T01:34:39.099Z,-8.43
2023-02-11T01:37:08.336Z,-8.40
2023-02-11T01:39:37.664Z,-8.36
2023-02-11T01:42:07.783Z,-8.38
2023-02-11T01:44:40.281Z,-8.45
2023-02-11T01:47:10.251Z,-8.41
2023-02-11T01:49:46.489Z,-8.36
2023-02-11T01:52:35.340Z,-8.41
2023-02-11T01:55:29.186Z,-8.40
2023-02-11T01:58:05.197Z,-8.40
2023-02-11T02:00:38.850Z,-8.34
2023-02-11T02:03:22.539Z,-8.34
2023-02-11T02:06:00.709Z,-8.40
2023-02-11T02:08:50.272Z,-8.47
2023-02-11T02:11:19.805Z,-8.48
2023-02-11T02:13:49.341Z,-8.54
2023-02-11T02:16:23.051Z,-8.57
2023-02-11T02:19:01.132Z,-8.49
2023-02-11T02:22:07.252Z,-8.43
2023-02-11T02:25:46.235Z,-8.46
2023-02-11T02:29:05.640Z,-8.53
2023-02-11T02:32:21.029Z,-8.58
2023-02-11T02:35:16.950Z,-8.65
2023-02-11T02:38:29.788Z,-8.69
2023-02-11T02:41:25.097Z,-8.80
2023-02-11T02:43:54.776Z,-8.96
2023-02-11T02:46:31.628Z,-9.09
2023-02-11T02:49:01.283Z,-9.06
2023-02-11T02:51:47.953Z,-9.07
2023-02-11T02:54:53.293Z,-9.07
2023-02-11T02:58:11.870Z,-9.05
2023-02-11T03:01:02.524Z,-9.14
2023-02-11T03:04:05.731Z,-9.28
2023-02-11T03:07:08.364Z,-9.28
2023-02-11T03:09:58.539Z,-9.28
2023-02-11T03:12:32.659Z,-9.31
2023-02-11T03:15:05.712Z,-9.25
2023-02-11T03:17:39.185Z,-9.19
2023-02-11T03:20:14.257Z,-9.20
2023-02-11T03:22:53.138Z,-9.20
2023-02-11T03:25:30.024Z,-9.23
2023-02-11T03:28:53.062Z,-9.27
2023-02-11T03:31:27.662Z,-9.29
2023-02-11T03:34:33.790Z,-9.24
2023-02-11T03:37:21.774Z,-9.21
2023-02-11T03:40:05.313Z,-9.12
2023-02-11T03:42:54.697Z,-9.07
2023-02-11T03:45:26.502Z,-9.05
2023-02-11T03:48:22.520Z,-8.99
2023-02-11T03:50:55.455Z,-9.03
2023-02-11T03:53:24.675Z,-9.07
2023-02-11T03:55:58.289Z,-9.07
2023-02-11T03:58:27.783Z,-9.15
2023-02-11T04:00:56.988Z,-9.14
2023-02-11T04:03:26.250Z,-9.16
2023-02-11T04:05:55.499Z,-9.19
2023-02-11T04:08:24.663Z,-9.16
2023-02-11T04:10:54.019Z,-9.18
2023-02-11T04:13:23.341Z,-9.19
2023-02-11T04:15:52.825Z,-9.16
2023-02-11T04:18:22.256Z,-9.13
2023-02-11T04:20:51.587Z,-9.11
2023-02-11T04:23:20.849Z,-9.10
2023-02-11T04:25:51.271Z,-9.08
2023-02-11T04:28:20.695Z,-9.11
2023-02-11T04:30:51.644Z,-9.04
2023-02-11T04:33:20.959Z,-9.01
2023-02-11T04:35:50.697Z,-9.03
2023-02-11T04:38:19.952Z,-9.12
2023-02-11T04:40:49.126Z,-9.15
2023-02-11T04:43:18.525Z,-9.03
2023-02-11T04:45:47.853Z,-8.94
2023-02-11T04:48:17.256Z,-8.90
2023-02-11T04:50:46.431Z,-8.84
2023-02-11T04:53:15.590Z,-8.74
2023-02-11T04:55:44.834Z,-8.68
2023-02-11T04:58:14.107Z,-8.63
2023-02-11T05:00:43.515Z,-8.53
2023-02-11T05:03:14.938Z,-8.42
2023-02-11T05:05:44.606Z,-8.31
2023-02-11T05:08:13.929Z,-8.29
2023-02-11T05:10:48.098Z,-8.34
2023-02-11T05:13:17.359Z,-8.38
2023-02-11T05:15:46.546Z,-8.34
2023-02-11T05:18:15.784Z,-8.39
2023-02-11T05:20:45.254Z,-8.34
2023-02-11T05:23:14.518Z,-8.26
2023-02-11T05:25:43.696Z,-8.25
2023-02-11T05:28:12.958Z,-8.10
2023-02-11T05:30:42.312Z,-7.86
2023-02-11T05:33:11.497Z,-7.72
2023-02-11T05:35:40.764Z,-7.63
2023-02-11T05:38:10.013Z,-7.54
2023-02-11T05:40:40.734Z,-7.45
2023-02-11T05:43:10.166Z,-7.36
2023-02-11T05:45:39.370Z,-7.37
2023-02-11T05:48:08.544Z,-7.35
2023-02-11T05:50:37.758Z,-7.30
2023-02-11T05:53:07.693Z,-7.29
2023-02-11T05:55:37.254Z,-7.22
2023-02-11T05:58:08.001Z,-7.17
2023-02-11T06:00:37.517Z,-7.13
2023-02-11T06:03:07.095Z,-7.18
2023-02-11T06:05:36.279Z,-7.17
2023-02-11T06:08:05.745Z,-7.17
2023-02-11T06:10:35.127Z,-7.15
2023-02-11T06:13:04.814Z,-7.15
2023-02-11T06:15:34.057Z,-7.16
2023-02-11T06:18:03.536Z,-7.12
2023-02-11T06:20:32.818Z,-7.10
2023-02-11T06:23:02.160Z,-7.11
2023-02-11T06:25:31.350Z,-7.24
2023-02-11T06:28:00.618Z,-7.25
2023-02-11T06:30:29.843Z,-7.26
2023-02-11T06:32:59.074Z,-7.25
2023-02-11T06:35:28.410Z,-7.14
2023-02-11T06:37:57.599Z,-6.98
2023-02-11T06:40:26.937Z,-6.84
2023-02-11T06:42:56.177Z,-6.74
2023-02-11T06:45:25.478Z,-6.57
2023-02-11T06:47:54.907Z,-6.45
2023-02-11T06:50:24.127Z,-6.34
2023-02-11T06:52:53.299Z,-6.25
2023-02-11T06:55:22.504Z,-6.18
2023-02-11T06:57:51.817Z,-6.11
2023-02-11T07:00:21.244Z,-6.12
2023-02-11T07:02:50.481Z,-6.19
2023-02-11T07:05:19.948Z,-6.18
2023-02-11T07:07:49.200Z,-6.21
2023-02-11T07:10:18.459Z,-6.07
2023-02-11T07:12:47.646Z,-5.96
2023-02-11T07:15:16.974Z,-5.87
2023-02-11T07:17:46.179Z,-5.65
2023-02-11T07:20:16.919Z,-5.49
2023-02-11T07:22:46.151Z,-5.40
2023-02-11T07:25:15.838Z,-5.28
2023-02-11T07:27:45.051Z,-5.08
2023-02-11T07:30:15.053Z,-4.91
2023-02-11T07:32:44.400Z,-4.79
2023-02-11T07:35:14.851Z,-4.68
2023-02-11T07:37:44.183Z,-4.70
2023-02-11T07:40:13.423Z,-4.62
2023-02-11T07:42:42.623Z,-4.40
2023-02-11T07:45:12.729Z,-4.14
2023-02-11T07:47:42.826Z,-3.92
2023-02-11T07:50:12.091Z,-3.67
2023-02-11T07:52:41.373Z,-3.43
2023-02-11T07:55:11.572Z,-3.22
2023-02-11T07:57:41.792Z,-3.13
2023-02-11T08:00:12.104Z,-3.06
2023-02-11T08:02:41.399Z,-3.00
2023-02-11T08:05:11.181Z,-2.98
2023-02-11T08:07:40.573Z,-2.85
2023-02-11T08:10:10.074Z,-2.74
2023-02-11T08:12:39.257Z,-2.67
2023-02-11T08:15:09.120Z,-2.66
2023-02-11T08:17:38.569Z,-2.63
2023-02-11T08:20:08.319Z,-2.47
2023-02-11T08:22:37.528Z,-2.21
2023-02-11T08:25:07.208Z,-2.10
2023-02-11T08:27:36.539Z,-1.95
2023-02-11T08:30:06.560Z,-1.76
2023-02-11T08:32:35.936Z,-1.60
2023-02-11T08:35:08.018Z,-1.30
2023-02-11T08:37:37.219Z,-1.03
2023-02-11T08:40:06.964Z,-0.72
2023-02-11T08:42:36.237Z,-0.42
2023-02-11T08:45:06.501Z,-0.10
2023-02-11T08:47:35.869Z,0.24
2023-02-11T08:50:06.313Z,0.57
2023-02-11T08:52:36.689Z,0.83
2023-02-11T08:55:06.593Z,1.06
2023-02-11T08:57:35.908Z,1.19
2023-02-11T09:00:06.144Z,1.25
2023-02-11T09:02:35.683Z,1.15
2023-02-11T09:05:05.239Z,1.07
2023-02-11T09:07:34.452Z,0.93
2023-02-11T09:10:06.723Z,0.85
2023-02-11T09:12:36.032Z,0.77
2023-02-11T09:15:06.065Z,0.75
2023-02-11T09:17:35.288Z,0.81
2023-02-11T09:20:09.126Z,0.83
2023-02-11T09:22:39.878Z,0.76
2023-02-11T09:25:09.662Z,0.91
2023-02-11T09:27:39.144Z,1.06
2023-02-11T09:30:09.896Z,1.15
2023-02-11T09:32:39.133Z,1.10
2023-02-11T09:35:08.644Z,0.94
2023-02-11T09:37:37.946Z,0.90
2023-02-11T09:40:07.615Z,0.97
2023-02-11T09:42:47.615Z,1.16
2023-02-11T09:45:27.537Z,1.08
2023-02-11T09:48:16.418Z,0.79
2023-02-11T09:51:00.413Z,0.54
2023-02-11T09:53:40.275Z,0.32
2023-02-11T09:56:15.671Z,0.12
2023-02-11T09:58:45.845Z,-0.03
2023-02-11T10:01:43.600Z,-0.15
2023-02-11T10:04:48.520Z,-0.05
2023-02-11T10:07:42.141Z,0.22
2023-02-11T10:10:41.460Z,0.37
2023-02-11T10:13:10.610Z,0.43
2023-02-11T10:16:02.838Z,0.53
2023-02-11T10:18:38.179Z,0.59
2023-02-11T10:21:20.173Z,0.59
2023-02-11T10:23:56.888Z,0.59
2023-02-11T10:26:38.691Z,0.59
2023-02-11T10:29:42.166Z,0.77
2023-02-11T10:33:00.883Z,0.95
2023-02-11T10:35:31.938Z,1.10
2023-02-11T10:38:01.487Z,1.20
2023-02-11T10:40:32.121Z,1.34
2023-02-11T10:43:07.915Z,1.51
2023-02-11T10:45:51.888Z,1.88
2023-02-11T10:48:51.564Z,2.15
2023-02-11T10:51:26.679Z,2.22
2023-02-11T10:54:04.865Z,2.23
2023-02-11T10:56:44.516Z,2.46
2023-02-11T10:59:27.978Z,2.61
2023-02-11T11:02:04.349Z,2.81
2023-02-11T11:04:33.792Z,3.00
2023-02-11T11:07:29.526Z,3.15
2023-02-11T11:10:45.225Z,3.28
2023-02-11T11:13:25.152Z,3.45
2023-02-11T11:16:13.824Z,3.60
2023-02-11T11:18:53.700Z,3.77
2023-02-11T11:21:28.917Z,3.92
2023-02-11T11:24:02.479Z,4.16
2023-02-11T11:26:44.716Z,4.59
2023-02-11T11:29:26.945Z,5.11
2023-02-11T11:32:05.533Z,5.62
2023-02-11T11:34:42.104Z,6.02
2023-02-11T11:37:25.792Z,6.42
2023-02-11T11:40:16.993Z,6.78
2023-02-11T11:42:46.341Z,7.08
2023-02-11T11:45:23.037Z,7.29
2023-02-11T11:48:03.473Z,7.49
2023-02-11T11:50:55.781Z,7.62
2023-02-11T11:53:34.800Z,7.71
2023-02-11T11:56:22.726Z,8.01
2023-02-11T11:58:53.209Z,8.04
2023-02-11T12:01:40.171Z,8.06
2023-02-11T12:04:37.097Z,8.05
2023-02-11T12:07:27.808Z,7.91
2023-02-11T12:10:31.997Z,7.78
2023-02-11T12:13:33.505Z,7.76
2023-02-11T12:16:40.062Z,7.85
2023-02-11T12:19:36.088Z,7.80
2023-02-11T12:22:21.459Z,7.58
2023-02-11T12:25:00.540Z,7.39
2023-02-11T12:28:01.879Z,7.12
2023-02-11T12:31:20.391Z,7.10
2023-02-11T12:34:07.474Z,7.16
2023-02-11T12:37:08.014Z,7.37
2023-02-11T12:40:02.251Z,7.36
2023-02-11T12:43:16.689Z,7.31
2023-02-11T12:46:23.045Z,7.52
2023-02-11T12:49:06.856Z,7.73
2023-02-11T12:52:05.465Z,8.08
2023-02-11T12:54:49.218Z,8.29
2023-02-11T12:57:33.366Z,8.48
2023-02-11T13:00:36.515Z,8.53
2023-02-11T13:03:11.961Z,8.65
2023-02-11T13:05:54.144Z,8.92
2023-02-11T13:08:30.767Z,9.04
2023-02-11T13:11:15.089Z,9.17
2023-02-11T13:13:59.429Z,9.46
2023-02-11T13:16:40.399Z,9.40
2023-02-11T13:19:30.584Z,9.27
2023-02-11T13:22:17.760Z,9.16
2023-02-11T13:25:06.227Z,8.48
2023-02-11T13:27:59.075Z,8.41
2023-02-11T13:30:39.405Z,8.44
2023-02-11T13:33:33.604Z,8.41
2023-02-11T13:36:04.721Z,8.39
2023-02-11T13:38:35.302Z,8.07
2023-02-11T13:41:28.568Z,7.86
2023-02-11T13:44:23.632Z,7.82
2023-02-11T13:46:59.608Z,7.82
2023-02-11T13:49:42.427Z,7.89
2023-02-11T13:52:37.467Z,8.01
2023-02-11T13:55:16.386Z,7.89
2023-02-11T13:57:45.844Z,7.95
2023-02-11T14:00:33.663Z,7.73
2023-02-11T14:03:30.477Z,7.62
2023-02-11T14:06:27.357Z,7.75
2023-02-11T14:09:17.260Z,7.72
2023-02-11T14:11:55.387Z,7.72
2023-02-11T14:14:36.129Z,7.55
2023-02-11T14:17:08.549Z,7.33
2023-02-11T14:19:47.209Z,7.07
2023-02-11T14:22:28.303Z,6.90
2023-02-11T14:25:05.095Z,6.89
2023-02-11T14:27:43.708Z,6.70
2023-02-11T14:30:39.261Z,6.63
2023-02-11T14:34:07.286Z,6.66
2023-02-11T14:36:58.145Z,6.64
2023-02-11T14:39:54.776Z,6.55
2023-02-11T14:42:28.196Z,6.41
2023-02-11T14:45:06.836Z,6.42
2023-02-11T14:48:20.680Z,6.36
2023-02-11T14:50:58.760Z,6.40
2023-02-11T14:53:31.858Z,6.44
2023-02-11T14:56:01.117Z,6.44
2023-02-11T14:58:32.976Z,6.42
2023-02-11T15:01:35.173Z,6.41
2023-02-11T15:04:23.171Z,6.31
2023-02-11T15:06:53.952Z,6.22
2023-02-11T15:09:41.961Z,6.12
2023-02-11T15:12:28.307Z,6.03
2023-02-11T15:15:00.871Z,5.99
2023-02-11T15:17:32.884Z,5.98
2023-02-11T15:20:02.793Z,5.89
2023-02-11T15:22:37.508Z,5.60
2023-02-11T15:25:17.237Z,5.48
2023-02-11T15:27:53.061Z,5.41
2023-02-11T15:30:22.252Z,5.19
2023-02-11T15:33:00.677Z,5.07
2023-02-11T15:35:35.216Z,4.85
2023-02-11T15:38:05.461Z,4.75
2023-02-11T15:40:37.474Z,4.67
2023-02-11T15:43:10.263Z,4.63
2023-02-11T15:46:01.909Z,4.64
2023-02-11T15:48:52.630Z,4.61
2023-02-11T15:51:31.305Z,4.47
2023-02-11T15:54:18.998Z,4.45
2023-02-11T15:56:52.584Z,4.44
2023-02-11T15:59:33.266Z,4.37
2023-02-11T16:02:22.447Z,4.32
2023-02-11T16:04:58.739Z,4.33
2023-02-11T16:07:51.429Z,4.33
2023-02-11T16:10:32.445Z,4.27
2023-02-11T16:13:07.706Z,4.30
2023-02-11T16:15:56.959Z,4.24
2023-02-11T16:18:40.187Z,4.18
2023-02-11T16:21:17.890Z,4.18
2023-02-11T16:23:54.975Z,4.24
2023-02-11T16:26:43.576Z,4.27
2023-02-11T16:29:18.345Z,4.38
2023-02-11T16:31:50.311Z,4.37
2023-02-11T16:34:25.365Z,4.43
2023-02-11T16:36:54.645Z,4.44
2023-02-11T16:39:23.909Z,4.44
2023-02-11T16:41:53.137Z,4.47
2023-02-11T16:44:22.661Z,4.51
2023-02-11T16:46:53.677Z,4.59
2023-02-11T16:49:38.324Z,4.59
2023-02-11T16:52:13.813Z,4.57
2023-02-11T16:54:43.110Z,4.53
2023-02-11T16:57:20.139Z,4.50
2023-02-11T16:59:50.116Z,4.42
2023-02-11T17:02:25.258Z,4.39
2023-02-11T17:04:56.436Z,4.41
2023-02-11T17:07:26.093Z,4.48
2023-02-11T17:09:55.938Z,4.50
2023-02-11T17:12:25.659Z,4.47
2023-02-11T17:14:54.950Z,4.41
2023-02-11T17:17:24.190Z,4.40
2023-02-11T17:19:53.590Z,4.39
2023-02-11T17:22:22.760Z,4.41
2023-02-11T17:24:52.014Z,4.48
2023-02-11T17:27:21.401Z,4.49
2023-02-11T17:29:51.531Z,4.44
2023-02-11T17:32:20.797Z,4.47
2023-02-11T17:34:50.140Z,4.49
2023-02-11T17:37:19.362Z,4.47
2023-02-11T17:39:51.013Z,4.35
2023-02-11T17:42:20.327Z,4.33
2023-02-11T17:44:49.595Z,4.28
2023-02-11T17:47:18.847Z,4.29
2023-02-11T17:49:48.033Z,4.29
2023-02-11T17:52:18.246Z,4.20
2023-02-11T17:54:47.665Z,4.11
2023-02-11T17:57:16.874Z,4.09
2023-02-11T17:59:46.348Z,4.05
2023-02-11T18:02:15.686Z,4.02
2023-02-11T18:04:45.457Z,4.03
2023-02-11T18:07:14.880Z,3.98
2023-02-11T18:09:44.144Z,3.87
2023-02-11T18:12:13.536Z,3.77
2023-02-11T18:14:42.794Z,3.71
2023-02-11T18:17:11.995Z,3.62
2023-02-11T18:19:41.197Z,3.57
2023-02-11T18:22:10.636Z,3.60
2023-02-11T18:24:40.273Z,3.56
2023-02-11T18:27:09.924Z,3.57
2023-02-11T18:29:39.283Z,3.55
2023-02-11T18:32:08.610Z,3.54
2023-02-11T18:34:40.327Z,3.51
2023-02-11T18:37:10.336Z,3.50
2023-02-11T18:39:39.888Z,3.45
2023-02-11T18:42:10.167Z,3.45
2023-02-11T18:44:39.384Z,3.45
2023-02-11T18:47:08.624Z,3.41
2023-02-11T18:49:37.941Z,3.40
2023-02-11T18:52:07.141Z,3.40
2023-02-11T18:54:36.358Z,3.36
2023-02-11T18:57:05.786Z,3.36
2023-02-11T18:59:35.353Z,3.34
2023-02-11T19:02:04.651Z,3.28
2023-02-11T19:04:37.381Z,3.26
2023-02-11T19:07:06.765Z,3.29
2023-02-11T19:09:36.324Z,3.32
2023-02-11T19:12:07.980Z,3.34
2023-02-11T19:14:37.369Z,3.36
2023-02-11T19:17:08.595Z,3.41
2023-02-11T19:19:38.018Z,3.49
2023-02-11T19:22:10.516Z,3.59
2023-02-11T19:24:40.177Z,3.63
2023-02-11T19:27:10.599Z,3.64
2023-02-11T19:29:39.867Z,3.60
2023-02-11T19:32:10.587Z,3.63
2023-02-11T19:34:41.599Z,3.66
2023-02-11T19:37:13.141Z,3.67
2023-02-11T19:39:43.529Z,3.71
2023-02-11T19:42:13.530Z,3.78
2023-02-11T19:44:42.755Z,3.76
2023-02-11T19:47:13.485Z,3.82
2023-02-11T19:49:42.882Z,3.87
2023-02-11T19:52:12.262Z,3.87
2023-02-11T19:54:41.494Z,3.88
2023-02-11T19:57:10.914Z,3.86
2023-02-11T19:59:40.425Z,3.88
2023-02-11T20:02:13.593Z,3.86
2023-02-11T20:04:42.845Z,3.87
2023-02-11T20:07:12.126Z,3.88
2023-02-11T20:09:42.651Z,3.88
2023-02-11T20:12:12.171Z,3.84
2023-02-11T20:14:41.401Z,3.81
2023-02-11T20:17:10.614Z,3.81
2023-02-11T20:19:39.817Z,3.74
2023-02-11T20:22:09.046Z,3.72
2023-02-11T20:24:38.290Z,3.70
2023-02-11T20:27:08.542Z,3.66
2023-02-11T20:29:39.889Z,3.69
2023-02-11T20:32:10.671Z,3.64
2023-02-11T20:34:40.078Z,3.67
2023-02-11T20:37:10.495Z,3.69
2023-02-11T20:39:41.980Z,3.73
2023-02-11T20:42:12.463Z,3.79
2023-02-11T20:44:41.728Z,3.79
2023-02-11T20:47:12.424Z,3.74
2023-02-11T20:49:41.664Z,3.69
2023-02-11T20:52:11.010Z,3.61
2023-02-11T20:54:40.367Z,3.59
2023-02-11T20:57:09.566Z,3.57
2023-02-11T20:59:38.834Z,3.54
2023-02-11T21:02:12.518Z,3.50
2023-02-11T21:04:41.854Z,3.48
2023-02-11T21:07:11.218Z,3.45
2023-02-11T21:09:40.534Z,3.42
2023-02-11T21:12:09.754Z,3.45
2023-02-11T21:14:39.052Z,3.45
2023-02-11T21:17:08.504Z,3.43
2023-02-11T21:19:37.792Z,3.42
2023-02-11T21:22:07.506Z,3.43
2023-02-11T21:24:37.019Z,3.41
2023-02-11T21:27:06.272Z,3.36
2023-02-11T21:29:45.737Z,3.35
2023-02-11T21:32:22.255Z,3.32
2023-02-11T21:34:51.542Z,3.29
2023-02-11T21:37:21.451Z,3.34
2023-02-11T21:39:50.708Z,3.32
2023-02-11T21:42:19.880Z,3.33
2023-02-11T21:44:49.191Z,3.33
2023-02-11T21:47:18.533Z,3.37
2023-02-11T21:49:47.703Z,3.40
2023-02-11T21:52:16.957Z,3.40
2023-02-11T21:54:49.778Z,3.38
2023-02-11T21:57:19.195Z,3.39
2023-02-11T21:59:48.431Z,3.37
2023-02-11T22:02:17.618Z,3.39
2023-02-11T22:04:46.860Z,3.42
2023-02-11T22:07:16.097Z,3.47
2023-02-11T22:09:45.404Z,3.49
2023-02-11T22:12:14.718Z,3.50
2023-02-11T22:14:44.075Z,3.50
2023-02-11T22:17:13.324Z,3.47
2023-02-11T22:19:42.650Z,3.50
2023-02-11T22:22:13.543Z,3.53
2023-02-11T22:24:42.902Z,3.57
2023-02-11T22:27:13.767Z,3.57
2023-02-11T22:29:43.871Z,3.57
2023-02-11T22:32:13.168Z,3.56
2023-02-11T22:34:42.607Z,3.58
2023-02-11T22:37:11.998Z,3.61
2023-02-11T22:39:42.727Z,3.68
2023-02-11T22:42:12.070Z,3.70
2023-02-11T22:44:41.386Z,3.77
2023-02-11T22:47:10.630Z,3.83
2023-02-11T22:49:41.479Z,3.92
2023-02-11T22:52:10.721Z,3.97
2023-02-11T22:54:39.941Z,4.01
2023-02-11T22:57:09.361Z,4.06
2023-02-11T22:59:38.567Z,4.13
2023-02-11T23:02:08.346Z,4.23
2023-02-11T23:04:37.677Z,4.29
2023-02-11T23:07:06.918Z,4.29
2023-02-11T23:09:36.119Z,4.23
2023-02-11T23:12:05.794Z,4.17
2023-02-11T23:14:34.968Z,4.12
2023-02-11T23:17:04.225Z,4.11
2023-02-11T23:19:33.564Z,4.12
2023-02-11T23:22:03.589Z,4.13
2023-02-11T23:24:32.973Z,4.14
2023-02-11T23:27:02.436Z,4.15
2023-02-11T23:29:31.734Z,4.20
2023-02-11T23:32:01.053Z,4.28
2023-02-11T23:34:30.341Z,4.36
2023-02-11T23:36:59.716Z,4.42
2023-02-11T23:39:30.271Z,4.44
2023-02-11T23:41:59.624Z,4.48
2023-02-11T23:44:29.130Z,4.58
2023-02-11T23:46:58.372Z,4.64
2023-02-11T23:49:27.633Z,4.71
2023-02-11T23:51:56.889Z,4.73
2023-02-11T23:54:26.053Z,4.77
2023-02-11T23:56:55.287Z,4.80
2023-02-11T23:59:24.530Z,4.85
